createdAt,value
2022-11-28T00:01:28.628Z,94.00
2022-11-28T00:03:56.845Z,97.00
2022-11-28T00:06:25.394Z,95.60
2022-11-28T00:08:53.466Z,96.30
2022-11-28T00:11:21.758Z,99.68
2022-11-28T00:13:50.996Z,98.63
2022-11-28T00:16:21.796Z,98.90
2022-11-28T00:18:50.048Z,99.22
2022-11-28T00:21:18.288Z,102.10
2022-11-28T00:23:47.771Z,99.80
2022-11-28T00:26:18.505Z,102.93
2022-11-28T00:28:46.524Z,100.85
2022-11-28T00:31:17.705Z,105.50
2022-11-28T00:33:45.686Z,103.43
2022-11-28T00:36:13.984Z,106.20
2022-11-28T00:38:42.281Z,109.20
2022-11-28T00:41:13.988Z,110.22
2022-11-28T00:43:42.852Z,111.20
2022-11-28T00:46:11.592Z,117.30
2022-11-28T00:48:41.365Z,113.40
2022-11-28T00:51:12.151Z,117.95
2022-11-28T00:53:42.422Z,118.97
2022-11-28T00:56:12.981Z,123.75
2022-11-28T00:58:41.053Z,127.45
2022-11-28T01:01:10.346Z,128.20
2022-11-28T01:03:40.453Z,125.72
2022-11-28T01:06:08.989Z,129.32
2022-11-28T01:08:37.142Z,137.70
2022-11-28T01:11:05.969Z,133.55
2022-11-28T01:13:33.864Z,139.43
2022-11-28T01:16:01.811Z,143.32
2022-11-28T01:18:29.812Z,142.57
2022-11-28T01:20:59.259Z,144.10
2022-11-28T01:23:27.257Z,140.77
2022-11-28T01:25:55.291Z,149.63
2022-11-28T01:28:23.258Z,151.10
2022-11-28T01:30:51.306Z,153.40
2022-11-28T01:33:19.208Z,159.18
2022-11-28T01:35:55.951Z,158.73
2022-11-28T01:38:25.783Z,162.73
2022-11-28T01:40:54.633Z,161.35
2022-11-28T01:43:22.938Z,161.52
2022-11-28T01:45:51.115Z,158.05
2022-11-28T01:48:24.050Z,152.82
2022-11-28T01:50:56.620Z,159.13
2022-11-28T01:53:29.493Z,152.40
2022-11-28T01:56:01.839Z,163.10
2022-11-28T02:00:58.924Z,160.23
2022-11-28T02:03:31.893Z,167.63
2022-11-28T02:05:59.841Z,168.25
2022-11-28T02:08:29.104Z,165.30
2022-11-28T02:11:20.448Z,164.20
2022-11-28T02:13:57.411Z,167.77
2022-11-28T02:16:38.309Z,171.38
2022-11-28T02:19:26.456Z,173.15
2022-11-28T02:22:01.633Z,180.25
2022-11-28T02:24:59.320Z,169.88
2022-11-28T02:27:48.998Z,171.93
2022-11-28T02:30:20.837Z,173.63
2022-11-28T02:33:24.358Z,167.18
2022-11-28T02:36:00.207Z,163.98
2022-11-28T02:38:42.905Z,162.95
2022-11-28T02:41:20.404Z,165.23
2022-11-28T02:43:55.159Z,167.98
2022-11-28T02:46:30.577Z,167.23
2022-11-28T02:49:05.378Z,160.80
2022-11-28T02:51:37.304Z,163.10
2022-11-28T02:54:08.693Z,164.88
2022-11-28T02:56:36.656Z,168.13
2022-11-28T02:59:04.836Z,161.63
2022-11-28T03:01:36.067Z,166.80
2022-11-28T03:04:20.725Z,170.95
2022-11-28T03:06:58.430Z,169.55
2022-11-28T03:09:42.180Z,163.18
2022-11-28T03:12:23.827Z,167.48
2022-11-28T03:14:54.675Z,166.63
2022-11-28T03:17:28.669Z,159.27
2022-11-28T03:20:07.649Z,155.77
2022-11-28T03:22:45.771Z,160.70
2022-11-28T03:25:24.295Z,157.10
2022-11-28T03:27:58.842Z,162.60
2022-11-28T03:30:32.724Z,155.20
2022-11-28T03:33:03.628Z,157.57
2022-11-28T03:35:37.535Z,149.95
2022-11-28T03:38:11.046Z,153.77
2022-11-28T03:40:44.685Z,146.65
2022-11-28T03:43:17.038Z,148.57
2022-11-28T03:48:18.152Z,141.77
2022-11-28T03:50:52.827Z,138.93
2022-11-28T03:53:26.057Z,140.43
2022-11-28T03:56:00.718Z,137.93
2022-11-28T03:58:35.440Z,132.98
2022-11-28T04:01:13.306Z,132.05
2022-11-28T04:03:53.690Z,130.00
2022-11-28T04:06:27.590Z,131.95
2022-11-28T04:09:02.723Z,129.32
2022-11-28T04:11:38.336Z,130.32
2022-11-28T04:14:13.176Z,129.52
2022-11-28T04:16:53.556Z,128.73
2022-11-28T04:19:29.361Z,128.75
2022-11-28T04:22:03.529Z,124.65
2022-11-28T04:24:35.602Z,129.75
2022-11-28T04:27:07.262Z,128.15
2022-11-28T04:29:39.770Z,131.60
2022-11-28T04:32:09.123Z,130.98
2022-11-28T04:34:38.544Z,129.20
2022-11-28T04:37:10.074Z,132.10
2022-11-28T04:39:39.775Z,136.13
2022-11-28T04:42:12.727Z,136.32
2022-11-28T04:44:48.286Z,134.48
2022-11-28T04:47:16.757Z,139.20
2022-11-28T04:49:44.949Z,132.25
2022-11-28T04:52:21.216Z,131.20
2022-11-28T04:54:55.329Z,132.35
2022-11-28T04:57:29.314Z,129.10
2022-11-28T04:59:58.138Z,133.07
2022-11-28T05:02:27.562Z,135.95
2022-11-28T05:04:56.031Z,134.27
2022-11-28T05:07:25.407Z,131.82
2022-11-28T05:09:53.375Z,131.50
2022-11-28T05:12:21.296Z,135.68
2022-11-28T05:14:49.195Z,136.63
2022-11-28T05:17:17.139Z,137.48
2022-11-28T05:19:45.040Z,134.63
2022-11-28T05:22:12.995Z,138.18
2022-11-28T05:24:42.497Z,138.63
2022-11-28T05:27:11.434Z,139.32
2022-11-28T05:29:46.805Z,142.43
2022-11-28T05:32:17.413Z,143.32
2022-11-28T05:34:45.524Z,140.80
2022-11-28T05:37:13.460Z,136.30
2022-11-28T05:39:42.966Z,140.63
2022-11-28T05:42:11.117Z,140.02
2022-11-28T05:44:39.251Z,137.50
2022-11-28T05:47:07.173Z,139.68
2022-11-28T05:49:35.097Z,140.20
2022-11-28T05:52:03.025Z,137.35
2022-11-28T05:54:31.643Z,136.02
2022-11-28T05:57:00.925Z,134.70
2022-11-28T05:59:28.844Z,135.38
2022-11-28T06:01:56.748Z,135.88
2022-11-28T06:04:24.803Z,132.98
2022-11-28T06:06:53.233Z,139.93
2022-11-28T06:09:25.651Z,137.40
2022-11-28T06:11:54.062Z,136.02
2022-11-28T06:14:23.326Z,134.68
2022-11-28T06:16:51.409Z,137.07
2022-11-28T06:19:19.650Z,135.85
2022-11-28T06:21:50.240Z,138.98
2022-11-28T06:24:18.270Z,137.05
2022-11-28T06:26:46.602Z,130.88
2022-11-28T06:29:14.468Z,134.32
2022-11-28T06:31:43.816Z,144.05
2022-11-28T06:34:12.554Z,144.82
2022-11-28T06:36:40.910Z,141.25
2022-11-28T06:39:08.951Z,148.77
2022-11-28T06:41:36.832Z,148.10
2022-11-28T06:44:08.079Z,147.27
2022-11-28T06:46:35.993Z,150.40
2022-11-28T06:49:05.597Z,147.82
2022-11-28T06:51:33.533Z,142.77
2022-11-28T06:54:01.634Z,149.82
2022-11-28T06:56:29.755Z,142.38
2022-11-28T06:58:59.076Z,144.02
2022-11-28T07:01:30.099Z,140.18
2022-11-28T07:03:58.571Z,141.20
2022-11-28T07:06:28.669Z,137.60
2022-11-28T07:08:57.601Z,139.70
2022-11-28T07:11:28.271Z,140.52
2022-11-28T07:13:56.771Z,143.45
2022-11-28T07:16:27.270Z,141.75
2022-11-28T07:18:55.378Z,141.77
2022-11-28T07:21:24.056Z,137.70
2022-11-28T07:23:53.403Z,143.40
2022-11-28T07:26:22.683Z,154.85
2022-11-28T07:28:51.160Z,154.55
2022-11-28T07:31:20.732Z,151.70
2022-11-28T07:33:50.535Z,148.65
2022-11-28T07:36:21.642Z,149.73
2022-11-28T07:38:50.814Z,153.50
2022-11-28T07:41:25.984Z,149.40
2022-11-28T07:43:56.371Z,146.65
2022-11-28T07:46:25.418Z,151.27
2022-11-28T07:48:53.825Z,152.15
2022-11-28T07:51:23.860Z,162.10
2022-11-28T07:53:51.820Z,158.18
2022-11-28T07:56:23.208Z,155.73
2022-11-28T07:58:51.276Z,169.98
2022-11-28T08:01:21.263Z,164.02
2022-11-28T08:03:49.349Z,160.23
2022-11-28T08:06:19.140Z,158.02
2022-11-28T08:08:48.327Z,160.30
2022-11-28T08:11:18.033Z,169.18
2022-11-28T08:13:47.488Z,169.98
2022-11-28T08:16:17.730Z,173.40
2022-11-28T08:18:46.393Z,176.63
2022-11-28T08:21:16.144Z,171.90
2022-11-28T08:23:45.310Z,175.38
2022-11-28T08:26:15.370Z,171.43
2022-11-28T08:28:44.078Z,167.13
2022-11-28T08:31:15.149Z,176.38
2022-11-28T08:33:43.868Z,169.43
2022-11-28T08:36:14.412Z,169.00
2022-11-28T08:38:49.920Z,172.85
2022-11-28T08:41:31.057Z,167.00
2022-11-28T08:43:59.059Z,169.07
2022-11-28T08:46:28.386Z,163.98
2022-11-28T08:48:56.342Z,166.13
2022-11-28T08:51:25.038Z,160.55
2022-11-28T08:53:59.121Z,160.30
2022-11-28T08:56:27.835Z,159.18
2022-11-28T08:58:56.230Z,158.48
2022-11-28T09:01:27.201Z,158.32
2022-11-28T09:03:57.306Z,156.68
2022-11-28T09:06:25.904Z,150.50
2022-11-28T09:08:54.705Z,153.02
2022-11-28T09:11:23.979Z,142.82
2022-11-28T09:13:51.906Z,146.50
2022-11-28T09:16:20.190Z,138.10
2022-11-28T09:18:48.157Z,143.48
2022-11-28T09:21:20.501Z,137.77
2022-11-28T09:23:48.411Z,136.32
2022-11-28T09:26:18.009Z,137.65
2022-11-28T09:28:46.535Z,134.68
2022-11-28T09:31:18.956Z,134.25
2022-11-28T09:36:18.731Z,135.85
2022-11-28T09:38:48.799Z,129.68
2022-11-28T09:41:44.334Z,127.53
2022-11-28T09:44:19.548Z,123.68
2022-11-28T09:46:48.670Z,125.85
2022-11-28T09:49:30.771Z,120.13
2022-11-28T09:52:07.356Z,116.60
2022-11-28T09:54:45.634Z,115.63
2022-11-28T09:57:22.212Z,110.57
2022-11-28T09:59:50.207Z,104.07
2022-11-28T10:02:27.437Z,97.75
2022-11-28T10:05:05.582Z,98.63
2022-11-28T10:07:45.036Z,96.50
2022-11-28T10:10:23.122Z,87.53
2022-11-28T10:13:01.086Z,80.95
2022-11-28T10:15:44.492Z,80.82
2022-11-28T10:18:27.577Z,82.20
2022-11-28T10:20:59.290Z,83.25
2022-11-28T10:23:31.260Z,82.45
2022-11-28T10:26:03.717Z,86.30
2022-11-28T10:28:35.360Z,88.95
2022-11-28T10:31:09.119Z,90.75
2022-11-28T10:33:42.740Z,86.95
2022-11-28T10:36:16.469Z,86.93
2022-11-28T10:38:44.336Z,88.32
2022-11-28T10:41:18.352Z,79.78
2022-11-28T10:43:51.877Z,83.43
2022-11-28T10:46:45.887Z,81.50
2022-11-28T10:49:27.836Z,77.47
2022-11-28T10:52:02.932Z,76.25
2022-11-28T10:54:46.365Z,79.10
2022-11-28T10:57:21.789Z,73.95
2022-11-28T11:00:02.376Z,75.05
2022-11-28T11:02:36.769Z,66.90
2022-11-28T11:05:05.732Z,62.45
2022-11-28T11:07:36.139Z,61.53
2022-11-28T11:10:16.264Z,62.45
2022-11-28T11:12:46.333Z,63.38
2022-11-28T11:15:31.092Z,62.92
2022-11-28T11:18:01.084Z,57.88
2022-11-28T11:20:34.713Z,55.80
2022-11-28T11:23:12.028Z,52.75
2022-11-28T11:25:48.638Z,54.50
2022-11-28T11:28:30.602Z,54.05
2022-11-28T11:31:03.246Z,52.90
2022-11-28T11:33:35.278Z,52.50
2022-11-28T11:36:06.171Z,55.33
2022-11-28T11:38:38.176Z,54.53
2022-11-28T11:41:22.391Z,52.63
2022-11-28T11:43:51.662Z,47.97
2022-11-28T11:46:19.590Z,48.35
2022-11-28T11:48:48.952Z,49.72
2022-11-28T11:51:25.860Z,52.53
2022-11-28T11:54:05.463Z,56.63
2022-11-28T11:56:37.444Z,54.53
2022-11-28T11:59:14.883Z,47.65
2022-11-28T12:01:45.189Z,50.05
2022-11-28T12:04:43.788Z,53.47
2022-11-28T12:07:16.589Z,48.30
2022-11-28T12:09:47.582Z,44.47
2022-11-28T12:12:18.858Z,41.50
2022-11-28T12:14:49.121Z,39.97
2022-11-28T12:20:30.038Z,35.80
2022-11-28T12:23:06.144Z,31.23
2022-11-28T12:25:40.867Z,32.30
2022-11-28T12:28:20.577Z,29.63
2022-11-28T12:31:05.125Z,26.63
2022-11-28T12:33:45.732Z,30.27
2022-11-28T12:36:22.013Z,30.77
2022-11-28T12:39:12.624Z,27.73
2022-11-28T12:42:06.120Z,30.27
2022-11-28T12:44:55.994Z,32.13
2022-11-28T12:47:38.504Z,31.15
2022-11-28T12:52:48.913Z,32.33
2022-11-28T12:55:27.438Z,31.83
2022-11-28T12:58:05.433Z,30.77
2022-11-28T13:00:35.363Z,30.73
2022-11-28T13:03:14.762Z,29.95
2022-11-28T13:05:51.279Z,28.92
2022-11-28T13:08:49.274Z,26.95
2022-11-28T13:11:30.205Z,27.85
2022-11-28T13:14:04.511Z,28.02
2022-11-28T13:16:39.075Z,26.88
2022-11-28T13:19:13.414Z,26.02
2022-11-28T13:21:47.818Z,27.92
2022-11-28T13:24:26.755Z,28.02
2022-11-28T13:27:03.215Z,28.45
2022-11-28T13:29:37.931Z,27.23
2022-11-28T13:32:13.740Z,25.60
2022-11-28T13:34:43.673Z,25.85
2022-11-28T13:40:17.832Z,26.92
2022-11-28T13:43:03.869Z,23.70
2022-11-28T13:45:39.277Z,25.67
2022-11-28T13:51:32.958Z,22.60
2022-11-28T13:54:45.538Z,20.38
2022-11-28T13:57:22.769Z,21.80
2022-11-28T13:59:55.096Z,22.00
2022-11-28T14:04:55.752Z,21.42
2022-11-28T14:07:31.283Z,21.02
2022-11-28T14:10:27.233Z,20.77
2022-11-28T14:13:12.567Z,20.40
2022-11-28T14:15:53.808Z,21.67
2022-11-28T14:21:32.878Z,21.88
2022-11-28T14:24:07.493Z,22.90
2022-11-28T14:26:37.977Z,22.90
2022-11-28T14:29:08.741Z,21.83
2022-11-28T14:31:39.632Z,20.85
2022-11-28T14:34:28.684Z,20.70
2022-11-28T14:37:38.920Z,20.95
2022-11-28T14:41:05.279Z,21.50
2022-11-28T14:43:37.165Z,21.98
2022-11-28T14:46:32.627Z,21.27
2022-11-28T14:49:23.413Z,21.70
2022-11-28T14:52:36.931Z,18.45
2022-11-28T14:54:57.978Z,20.42
2022-11-28T14:57:28.706Z,20.25
2022-11-28T15:00:00.146Z,20.88
2022-11-28T15:02:52.790Z,19.63
2022-11-28T15:08:05.685Z,19.80
2022-11-28T15:10:42.402Z,17.95
2022-11-28T15:13:27.625Z,19.27
2022-11-28T15:15:57.274Z,19.63
2022-11-28T15:18:26.771Z,18.90
2022-11-28T15:20:58.731Z,19.65
2022-11-28T15:23:30.296Z,20.25
2022-11-28T15:25:59.434Z,22.35
2022-11-28T15:28:32.113Z,22.02
2022-11-28T15:31:04.042Z,21.23
2022-11-28T15:33:33.631Z,22.23
2022-11-28T15:36:04.243Z,25.20
2022-11-28T15:38:33.162Z,25.10
2022-11-28T15:41:01.772Z,25.77
2022-11-28T15:43:31.702Z,26.77
2022-11-28T15:46:02.880Z,25.95
2022-11-28T15:48:39.331Z,27.77
2022-11-28T15:51:08.719Z,27.77
2022-11-28T15:53:42.258Z,25.95
2022-11-28T15:56:12.328Z,28.83
2022-11-28T15:58:41.999Z,25.83
2022-11-28T16:01:16.693Z,28.10
2022-11-28T16:03:50.701Z,27.65
2022-11-28T16:06:19.768Z,30.10
2022-11-28T16:08:51.817Z,39.97
2022-11-28T16:11:22.023Z,37.28
2022-11-28T16:13:50.432Z,38.13
2022-11-28T16:16:22.747Z,42.10
2022-11-28T16:18:58.592Z,45.15
2022-11-28T16:21:29.953Z,43.65
2022-11-28T16:23:57.825Z,50.38
2022-11-28T16:26:32.126Z,48.35
2022-11-28T16:29:04.469Z,56.17
2022-11-28T16:31:34.780Z,60.10
2022-11-28T16:34:03.746Z,60.90
2022-11-28T16:36:36.839Z,62.78
2022-11-28T16:39:12.240Z,59.05
2022-11-28T16:41:42.467Z,64.85
2022-11-28T16:44:14.435Z,67.10
2022-11-28T16:46:53.215Z,66.43
2022-11-28T16:49:38.804Z,66.55
2022-11-28T16:52:52.365Z,71.25
2022-11-28T16:55:48.358Z,72.78
2022-11-28T16:58:18.610Z,68.22
2022-11-28T17:00:51.721Z,67.80
2022-11-28T17:03:46.569Z,70.68
2022-11-28T17:06:21.729Z,73.88
2022-11-28T17:08:50.574Z,77.65
2022-11-28T17:11:21.229Z,78.60
2022-11-28T17:13:49.298Z,81.07
2022-11-28T17:16:19.908Z,81.00
2022-11-28T17:18:49.571Z,80.88
2022-11-28T17:21:19.722Z,86.00
2022-11-28T17:23:47.669Z,83.63
2022-11-28T17:26:15.593Z,82.32
2022-11-28T17:28:43.543Z,84.22
2022-11-28T17:31:13.168Z,83.78
2022-11-28T17:33:44.664Z,83.70
2022-11-28T17:36:14.710Z,86.82
2022-11-28T17:38:42.685Z,83.65
2022-11-28T17:41:14.463Z,82.82
2022-11-28T17:43:42.801Z,81.78
2022-11-28T17:46:11.299Z,85.43
2022-11-28T17:48:39.350Z,83.93
2022-11-28T17:51:07.408Z,84.38
2022-11-28T17:53:38.200Z,89.20
2022-11-28T17:56:06.727Z,90.35
2022-11-28T17:58:34.605Z,88.93
2022-11-28T18:01:02.601Z,87.82
2022-11-28T18:03:30.828Z,89.00
2022-11-28T18:05:58.838Z,87.65
2022-11-28T18:08:26.837Z,85.97
2022-11-28T18:11:05.351Z,86.32
2022-11-28T18:13:33.432Z,83.18
2022-11-28T18:16:03.689Z,81.78
2022-11-28T18:18:32.494Z,79.38
2022-11-28T18:21:00.809Z,78.55
2022-11-28T18:23:28.850Z,74.85
2022-11-28T18:25:57.038Z,79.80
2022-11-28T18:28:26.466Z,77.82
2022-11-28T18:30:54.441Z,75.07
2022-11-28T18:33:23.149Z,76.93
2022-11-28T18:35:51.155Z,80.35
2022-11-28T18:38:19.099Z,76.40
2022-11-28T18:40:46.989Z,80.53
2022-11-28T18:43:14.880Z,78.75
2022-11-28T18:45:44.442Z,74.97
2022-11-28T18:48:12.958Z,75.20
2022-11-28T18:50:40.902Z,77.40
2022-11-28T18:53:08.798Z,74.55
2022-11-28T18:55:36.766Z,73.80
2022-11-28T18:58:04.699Z,72.03
2022-11-28T19:00:32.658Z,69.63
2022-11-28T19:03:01.998Z,71.93
2022-11-28T19:05:31.891Z,70.85
2022-11-28T19:08:03.027Z,74.45
2022-11-28T19:10:30.959Z,67.82
2022-11-28T19:12:58.905Z,69.65
2022-11-28T19:15:26.862Z,65.95
2022-11-28T19:17:54.859Z,72.13
2022-11-28T19:20:26.926Z,77.70
2022-11-28T19:22:54.841Z,74.50
2022-11-28T19:25:22.787Z,69.47
2022-11-28T19:27:50.713Z,69.82
2022-11-28T19:30:19.058Z,65.47
2022-11-28T19:32:46.988Z,63.58
2022-11-28T19:35:17.719Z,68.00
2022-11-28T19:37:47.060Z,71.20
2022-11-28T19:40:15.411Z,71.90
2022-11-28T19:42:43.339Z,71.00
2022-11-28T19:45:12.009Z,73.93
2022-11-28T19:47:39.941Z,71.45
2022-11-28T19:50:09.758Z,71.07
2022-11-28T19:52:37.698Z,72.13
2022-11-28T19:55:07.902Z,74.20
2022-11-28T19:57:37.253Z,71.82
2022-11-28T20:00:07.025Z,71.60
2022-11-28T20:02:35.097Z,72.32
2022-11-28T20:05:03.061Z,69.88
2022-11-28T20:07:30.999Z,67.55
2022-11-28T20:09:58.942Z,66.60
2022-11-28T20:12:28.176Z,67.93
2022-11-28T20:14:56.143Z,66.78
2022-11-28T20:17:24.117Z,65.72
2022-11-28T20:19:52.061Z,68.28
2022-11-28T20:22:21.883Z,67.05
2022-11-28T20:24:49.774Z,69.00
2022-11-28T20:27:17.743Z,68.50
2022-11-28T20:29:47.141Z,72.00
2022-11-28T20:32:15.149Z,72.78
2022-11-28T20:34:43.082Z,71.45
2022-11-28T20:37:11.023Z,73.95
2022-11-28T20:39:39.628Z,73.57
2022-11-28T20:42:07.901Z,74.53
2022-11-28T20:44:35.794Z,77.97
2022-11-28T20:47:05.186Z,78.80
2022-11-28T20:49:33.226Z,82.30
2022-11-28T20:52:01.203Z,80.85
2022-11-28T20:54:29.412Z,77.28
2022-11-28T20:59:45.789Z,83.07
2022-11-28T21:02:15.701Z,82.03
2022-11-28T21:04:43.786Z,79.38
2022-11-28T21:07:11.732Z,81.28
2022-11-28T21:09:39.662Z,84.63
2022-11-28T21:12:08.338Z,85.47
2022-11-28T21:14:36.230Z,83.05
2022-11-28T21:17:04.182Z,87.10
2022-11-28T21:19:33.450Z,87.78
2022-11-28T21:22:01.380Z,81.38
2022-11-28T21:24:29.324Z,87.88
2022-11-28T21:26:57.228Z,82.30
2022-11-28T21:29:25.502Z,83.13
2022-11-28T21:31:54.141Z,82.00
2022-11-28T21:34:22.680Z,86.80
2022-11-28T21:36:52.038Z,92.25
2022-11-28T21:39:22.000Z,87.45
2022-11-28T21:41:50.973Z,92.75
2022-11-28T21:44:19.080Z,94.22
2022-11-28T21:46:47.069Z,98.63
2022-11-28T21:49:15.029Z,101.82
2022-11-28T21:51:42.927Z,104.05
2022-11-28T21:54:13.094Z,101.03
2022-11-28T21:56:41.048Z,102.60
2022-11-28T21:59:09.212Z,112.50
2022-11-28T22:01:37.290Z,107.60
2022-11-28T22:04:05.812Z,103.60
2022-11-28T22:06:34.340Z,105.72
2022-11-28T22:09:09.102Z,108.43
2022-11-28T22:11:39.224Z,107.95
2022-11-28T22:14:07.317Z,105.05
2022-11-28T22:16:35.407Z,104.72
2022-11-28T22:19:04.033Z,100.03
2022-11-28T22:24:20.069Z,106.90
2022-11-28T22:26:49.374Z,99.00
2022-11-28T22:29:17.331Z,99.82
2022-11-28T22:31:45.386Z,99.05
2022-11-28T22:34:13.541Z,97.00
2022-11-28T22:36:41.573Z,98.15
2022-11-28T22:39:10.676Z,94.68
2022-11-28T22:41:38.603Z,92.72
2022-11-28T22:44:08.033Z,93.70
2022-11-28T22:46:36.000Z,102.90
2022-11-28T22:49:04.425Z,90.45
2022-11-28T22:51:32.787Z,92.35
2022-11-28T22:54:02.356Z,95.35
2022-11-28T22:56:32.352Z,93.85
2022-11-28T22:59:00.593Z,95.63
2022-11-28T23:01:31.596Z,86.53
2022-11-28T23:04:00.034Z,88.18
2022-11-28T23:06:29.581Z,91.18
2022-11-28T23:08:58.782Z,89.28
2022-11-28T23:11:30.342Z,89.82
2022-11-28T23:13:58.300Z,90.67
2022-11-28T23:16:29.862Z,89.90
2022-11-28T23:19:00.182Z,89.77
2022-11-28T23:21:31.654Z,88.55
2022-11-28T23:23:59.758Z,88.90
2022-11-28T23:26:30.897Z,86.10
2022-11-28T23:29:01.325Z,91.18
2022-11-28T23:31:32.436Z,89.53
2022-11-28T23:34:01.904Z,94.97
2022-11-28T23:36:33.727Z,92.40
2022-11-28T23:39:07.896Z,94.65
2022-11-28T23:41:35.808Z,98.55
2022-11-28T23:44:03.746Z,95.97
2022-11-28T23:46:33.371Z,101.35
2022-11-28T23:49:01.356Z,99.43
2022-11-28T23:51:29.368Z,98.55
2022-11-28T23:53:57.261Z,95.72
2022-11-28T23:56:26.956Z,98.32
2022-11-28T23:58:56.738Z,96.03
